Time;durP1;ratioP1;P1;durP2;ratioP2;P2;SDS_P1;SDS_P2;PMS_P1;PMS_P2;Temp;Humidity;BMP_temperature;BMP_pressure;BME280_temperature;BME280_humidity;BME280_pressure;Samples;Min_cycle;Max_cycle;Signal;HPM_P1;HPM_P2
2023/02/24 00:01:17;;;;;;;;;;;;;;;29.89;20.33;101286.03;5000002;28;1104;-17
2023/02/24 00:03:43;;;;;;;;;;;;;;;30.37;19.74;101279.31;5007412;28;1160;-17
2023/02/24 00:06:10;;;;;;;;;;;;;;;30.02;20.05;101282.66;5013195;28;1076;-17
2023/02/24 00:08:37;;;;;;;;;;;;;;;29.50;20.40;101277.13;5016374;28;1093;-16
2023/02/24 00:11:07;;;;;;;;;;;;;;;29.69;20.69;101271.22;5013359;28;1956;-16
2023/02/24 00:13:34;;;;;;;;;;;;;;;29.50;20.63;101275.28;5007604;28;1144;-16
2023/02/24 00:16:00;;;;;;;;;;;;;;;29.32;20.89;101267.50;4999346;28;1109;-16
2023/02/24 00:18:26;;;;;;;;;;;;;;;29.28;21.13;101271.63;5007946;28;1049;-17
2023/02/24 00:20:55;;;;;;;;;;;;;;;29.48;20.75;101257.53;4999721;28;1071;-17
2023/02/24 00:23:22;;;;;;;;;;;;;;;29.57;20.83;101256.41;4996516;28;1034;-17
2023/02/24 00:25:48;;;;;;;;;;;;;;;29.56;20.59;101260.16;4998710;28;1062;-17
2023/02/24 00:28:13;;;;;;;;;;;;;;;29.29;20.85;101255.19;5007662;28;1235;-16
2023/02/24 00:30:38;;;;;;;;;;;;;;;30.15;20.24;101257.53;5002862;28;1906;-16
2023/02/24 00:33:05;;;;;;;;;;;;;;;30.29;20.00;101256.69;5006211;28;1208;-16
2023/02/24 00:35:31;;;;;;;;;;;;;;;30.03;20.28;101251.78;4996949;28;1026;-16
2023/02/24 00:37:56;;;;;;;;;;;;;;;29.93;20.26;101239.34;5007011;28;866;-17
2023/02/24 00:40:22;;;;;;;;;;;;;;;29.71;20.61;101241.19;5000186;28;1077;-17
2023/02/24 00:42:48;;;;;;;;;;;;;;;29.83;20.43;101233.38;5006940;28;1065;-17
2023/02/24 00:45:15;;;;;;;;;;;;;;;29.66;20.19;101233.59;5002512;28;1104;-16
2023/02/24 00:47:41;;;;;;;;;;;;;;;29.28;21.08;101229.09;5016506;28;1096;-17
2023/02/24 00:50:07;;;;;;;;;;;;;;;30.09;20.19;101220.31;4999732;28;1088;-17
2023/02/24 00:52:32;;;;;;;;;;;;;;;30.01;20.07;101219.41;4996606;28;1910;-16
2023/02/24 00:54:57;;;;;;;;;;;;;;;30.10;20.09;101219.28;5009695;28;1153;-17
2023/02/24 00:57:23;;;;;;;;;;;;;;;29.84;20.35;101207.97;5006546;28;1157;-17
2023/02/24 00:59:50;;;;;;;;;;;;;;;29.92;20.24;101210.56;5003136;28;1213;-16
2023/02/24 01:02:15;;;;;;;;;;;;;;;30.09;19.94;101213.03;4988254;28;1220;-17
2023/02/24 01:04:43;;;;;;;;;;;;;;;29.68;20.25;101207.16;5000693;28;1037;-16
2023/02/24 01:07:09;;;;;;;;;;;;;;;29.71;20.78;101197.81;5016123;28;1100;-17
2023/02/24 01:09:35;;;;;;;;;;;;;;;30.27;20.05;101199.06;5015667;28;1037;-17
2023/02/24 01:12:00;;;;;;;;;;;;;;;30.16;20.27;101200.38;5016210;28;1890;-17
2023/02/24 01:14:26;;;;;;;;;;;;;;;30.08;20.17;101194.25;5015346;28;1041;-17
2023/02/24 01:16:52;;;;;;;;;;;;;;;30.06;20.32;101189.00;5016419;28;1115;-17
2023/02/24 01:19:21;;;;;;;;;;;;;;;29.97;20.36;101182.00;5011767;28;1116;-17
2023/02/24 01:21:46;;;;;;;;;;;;;;;29.74;20.67;101186.56;4996072;28;1021;-17
2023/02/24 01:24:14;;;;;;;;;;;;;;;29.57;20.61;101177.78;5009838;28;1187;-16
2023/02/24 01:26:39;;;;;;;;;;;;;;;29.81;20.79;101182.06;4987330;28;1145;-17
2023/02/24 01:29:08;;;;;;;;;;;;;;;30.18;20.37;101173.88;5008802;28;1227;-17
2023/02/24 01:31:33;;;;;;;;;;;;;;;29.78;20.69;101171.59;5008061;28;1918;-17
2023/02/24 01:34:04;;;;;;;;;;;;;;;29.86;20.78;101176.09;5015615;28;1056;-17
2023/02/24 01:36:30;;;;;;;;;;;;;;;29.78;20.82;101168.06;5005013;28;1456;-17
2023/02/24 01:38:55;;;;;;;;;;;;;;;29.67;21.00;101172.09;5005810;28;1081;-16
2023/02/24 01:41:21;;;;;;;;;;;;;;;29.66;20.47;101159.56;5019438;28;1128;-16
2023/02/24 01:43:57;;;;;;;;;;;;;;;29.64;20.97;101164.34;5014002;28;1132;-17
2023/02/24 01:46:23;;;;;;;;;;;;;;;30.18;20.32;101160.31;5012534;28;1165;-16
2023/02/24 01:48:49;;;;;;;;;;;;;;;29.96;20.63;101159.50;5006725;28;1092;-17
2023/02/24 01:51:15;;;;;;;;;;;;;;;30.04;20.62;101162.09;5018890;28;1906;-16
2023/02/24 01:53:40;;;;;;;;;;;;;;;29.88;20.70;101165.03;5002029;28;1065;-17
2023/02/24 01:56:06;;;;;;;;;;;;;;;30.10;20.49;101155.03;5018890;28;1099;-17
2023/02/24 01:58:32;;;;;;;;;;;;;;;30.38;20.20;101151.53;5012449;28;901;-17
2023/02/24 02:00:57;;;;;;;;;;;;;;;29.97;20.34;101149.47;4989011;28;1174;-16
2023/02/24 02:03:30;;;;;;;;;;;;;;;29.67;20.94;101150.41;4995052;28;1152;-16
2023/02/24 02:05:58;;;;;;;;;;;;;;;30.34;20.17;101152.13;5014063;28;1105;-16
2023/02/24 02:08:24;;;;;;;;;;;;;;;30.52;20.19;101146.22;5019110;28;1131;-17
2023/02/24 02:10:52;;;;;;;;;;;;;;;30.51;20.12;101145.38;4999522;28;1959;-17
2023/02/24 02:13:19;;;;;;;;;;;;;;;30.21;20.30;101142.88;4999688;28;1190;-16
2023/02/24 02:15:55;;;;;;;;;;;;;;;30.04;20.69;101142.25;4997423;28;1128;-17
2023/02/24 02:18:32;;;;;;;;;;;;;;;29.96;20.36;101150.50;5018979;28;1057;-17
2023/02/24 02:21:17;;;;;;;;;;;;;;;29.68;20.53;101139.38;5018261;28;986;-17
2023/02/24 02:23:48;;;;;;;;;;;;;;;30.16;20.36;101148.81;5000047;28;924;-17
2023/02/24 02:26:20;;;;;;;;;;;;;;;30.19;20.50;101148.44;5017188;28;1207;-16
2023/02/24 02:28:45;;;;;;;;;;;;;;;30.22;20.54;101149.94;5002227;28;1164;-17
2023/02/24 02:31:14;;;;;;;;;;;;;;;29.94;20.80;101143.41;4999251;28;1906;-16
2023/02/24 02:33:39;;;;;;;;;;;;;;;29.93;20.90;101141.72;4994947;28;1065;-16
2023/02/24 02:36:11;;;;;;;;;;;;;;;29.94;20.56;101137.13;5008752;28;1216;-16
2023/02/24 02:38:52;;;;;;;;;;;;;;;29.74;20.67;101135.06;4998053;28;1120;-16
2023/02/24 02:41:17;;;;;;;;;;;;;;;29.80;21.06;101134.28;5011704;28;1184;-18
2023/02/24 02:43:55;;;;;;;;;;;;;;;30.19;20.60;101134.03;5018412;28;1101;-17
2023/02/24 02:46:33;;;;;;;;;;;;;;;29.99;20.87;101131.13;5004052;28;1148;-17
2023/02/24 02:49:01;;;;;;;;;;;;;;;30.02;20.72;101119.88;4981095;28;1483;-17
2023/02/24 02:51:32;;;;;;;;;;;;;;;29.81;21.10;101121.56;5015127;28;1898;-17
2023/02/24 02:54:06;;;;;;;;;;;;;;;29.80;21.05;101125.31;4990804;28;1116;-17
2023/02/24 02:56:41;;;;;;;;;;;;;;;29.81;20.88;101121.56;5011696;28;1165;-16
2023/02/24 02:59:07;;;;;;;;;;;;;;;29.73;20.86;101114.38;4998079;28;1084;-17
2023/02/24 03:01:34;;;;;;;;;;;;;;;30.01;20.96;101113.63;4986465;28;1065;-17
2023/02/24 03:04:01;;;;;;;;;;;;;;;30.14;20.82;101117.50;5000603;28;1040;-17
2023/02/24 03:06:32;;;;;;;;;;;;;;;30.24;20.56;101111.78;5000272;28;1061;-17
2023/02/24 03:09:10;;;;;;;;;;;;;;;30.09;20.88;101109.09;5017564;28;1140;-17
2023/02/24 03:11:36;;;;;;;;;;;;;;;30.15;20.74;101103.75;4982467;28;1951;-16
2023/02/24 03:14:01;;;;;;;;;;;;;;;30.31;20.68;101104.53;4998945;28;1101;-17
2023/02/24 03:16:27;;;;;;;;;;;;;;;30.04;20.38;101094.25;4998315;28;1128;-17
2023/02/24 03:18:55;;;;;;;;;;;;;;;29.95;20.96;101092.69;5011831;28;1192;-17
2023/02/24 03:21:41;;;;;;;;;;;;;;;30.16;20.69;101085.59;5017863;28;1148;-17
2023/02/24 03:24:06;;;;;;;;;;;;;;;30.16;20.81;101085.59;5003889;28;1167;-16
2023/02/24 03:26:42;;;;;;;;;;;;;;;30.14;20.93;101085.78;5015774;28;1145;-17
2023/02/24 03:29:16;;;;;;;;;;;;;;;30.17;20.75;101081.84;5016851;28;1044;-16
2023/02/24 03:31:46;;;;;;;;;;;;;;;30.15;20.86;101082.03;4987764;28;1899;-16
2023/02/24 03:34:17;;;;;;;;;;;;;;;29.91;20.86;101080.56;4998344;28;1009;-17
2023/02/24 03:36:42;;;;;;;;;;;;;;;29.79;20.82;101072.97;4999475;28;1121;-18
2023/02/24 03:39:10;;;;;;;;;;;;;;;30.06;20.94;101081.31;5017392;28;1105;-16
2023/02/24 03:41:55;;;;;;;;;;;;;;;30.10;20.81;101081.78;4987317;28;1275;-17
2023/02/24 03:44:20;;;;;;;;;;;;;;;30.36;20.53;101074.09;4989992;28;1220;-17
2023/02/24 03:46:46;;;;;;;;;;;;;;;30.42;20.36;101071.41;5001678;28;1049;-17
2023/02/24 03:49:12;;;;;;;;;;;;;;;30.18;20.81;101069.94;5017496;28;1034;-17
2023/02/24 03:51:38;;;;;;;;;;;;;;;30.17;20.81;101071.84;5013337;28;1898;-17
2023/02/24 03:54:18;;;;;;;;;;;;;;;30.02;20.51;101068.34;4990778;28;1045;-17
2023/02/24 03:56:45;;;;;;;;;;;;;;;30.14;20.83;101074.94;4999203;28;1099;-17
2023/02/24 03:59:17;;;;;;;;;;;;;;;30.31;20.65;101069.25;5017088;28;1024;-17
2023/02/24 04:01:56;;;;;;;;;;;;;;;30.41;20.60;101072.44;4993155;28;1097;-17
2023/02/24 04:04:28;;;;;;;;;;;;;;;30.16;21.03;101070.13;4993555;28;1185;-16
2023/02/24 04:06:56;;;;;;;;;;;;;;;30.03;20.99;101067.34;5006748;28;1149;-17
2023/02/24 04:09:25;;;;;;;;;;;;;;;30.00;21.04;101067.69;5001215;28;1144;-17
2023/02/24 04:12:00;;;;;;;;;;;;;;;30.09;20.53;101066.53;4989193;28;1902;-17
2023/02/24 04:14:28;;;;;;;;;;;;;;;29.49;20.72;101059.47;4999188;28;1164;-17
2023/02/24 04:17:02;;;;;;;;;;;;;;;26.93;20.07;101051.50;5004971;28;1045;-17
2023/02/24 04:19:28;;;;;;;;;;;;;;;25.28;21.93;101050.31;5010728;28;1023;-16
2023/02/24 04:21:53;;;;;;;;;;;;;;;24.55;22.52;101045.22;4996645;28;1017;-17
2023/02/24 04:24:20;;;;;;;;;;;;;;;24.70;21.85;101045.47;5014436;28;1133;-17
2023/02/24 04:26:45;;;;;;;;;;;;;;;24.28;22.47;101047.03;4996249;28;1200;-17
2023/02/24 04:29:16;;;;;;;;;;;;;;;24.41;21.91;101043.94;5003512;28;1123;-18
2023/02/24 04:31:42;;;;;;;;;;;;;;;24.12;22.07;101045.06;4999664;28;1902;-18
2023/02/24 04:34:08;;;;;;;;;;;;;;;23.88;22.44;101040.28;5010989;28;1057;-18
2023/02/24 04:36:33;;;;;;;;;;;;;;;23.41;23.01;101044.84;4979446;28;915;-17
2023/02/24 04:38:58;;;;;;;;;;;;;;;23.41;22.76;101043.03;5015031;28;1307;-18
2023/02/24 04:41:24;;;;;;;;;;;;;;;25.34;21.91;101039.88;4998624;28;1088;-17
2023/02/24 04:43:52;;;;;;;;;;;;;;;26.27;21.04;101045.22;4998336;28;1101;-18
2023/02/24 04:46:18;;;;;;;;;;;;;;;26.43;20.60;101046.22;5008153;28;1025;-17
2023/02/24 04:48:44;;;;;;;;;;;;;;;26.58;19.97;101040.97;5004174;28;2344;-17
2023/02/24 04:51:09;;;;;;;;;;;;;;;26.27;19.98;101042.53;5006599;28;1924;-18
2023/02/24 04:53:36;;;;;;;;;;;;;;;26.57;19.60;101032.06;5005273;28;2255;-17
2023/02/24 04:56:07;;;;;;;;;;;;;;;24.90;21.58;101029.13;5002231;28;1892;-18
2023/02/24 04:58:32;;;;;;;;;;;;;;;24.25;22.56;101031.22;4997162;28;1792;-17
2023/02/24 05:00:57;;;;;;;;;;;;;;;25.63;20.83;101034.09;5008732;28;1782;-17
2023/02/24 05:03:26;;;;;;;;;;;;;;;26.25;19.88;101029.22;5007218;28;2069;-18
2023/02/24 05:05:56;;;;;;;;;;;;;;;26.36;19.92;101025.34;4996770;28;994;-18
2023/02/24 05:08:22;;;;;;;;;;;;;;;26.99;19.54;101021.94;5009329;28;998;-18
2023/02/24 05:10:47;;;;;;;;;;;;;;;27.36;19.09;101025.00;4997175;28;1894;-17
2023/02/24 05:13:13;;;;;;;;;;;;;;;26.24;20.23;101029.38;5010274;28;1076;-17
2023/02/24 05:15:39;;;;;;;;;;;;;;;26.00;21.12;101029.22;5019719;28;1001;-17
2023/02/24 05:18:08;;;;;;;;;;;;;;;27.52;19.40;101031.31;5008965;28;1188;-16
2023/02/24 05:23:30;;;;;;;;;;;;;;;27.78;19.32;101034.75;5019050;28;1040;-17
2023/02/24 05:25:59;;;;;;;;;;;;;;;26.96;20.41;101035.78;5018587;28;1453;-16
2023/02/24 05:28:24;;;;;;;;;;;;;;;26.58;21.03;101038.28;5005968;28;1116;-17
2023/02/24 05:30:50;;;;;;;;;;;;;;;26.87;20.72;101029.59;5011657;28;1910;-17
2023/02/24 05:33:20;;;;;;;;;;;;;;;26.86;20.59;101027.91;5008273;28;1937;-17
2023/02/24 05:35:46;;;;;;;;;;;;;;;27.31;20.34;101031.97;5007951;28;1229;-17
2023/02/24 05:38:12;;;;;;;;;;;;;;;27.58;20.11;101030.59;5009653;28;1204;-17
2023/02/24 05:40:45;;;;;;;;;;;;;;;28.00;19.74;101035.72;5010890;28;1212;-17
2023/02/24 05:43:14;;;;;;;;;;;;;;;27.52;20.51;101034.03;5009837;28;1201;-17
2023/02/24 05:45:42;;;;;;;;;;;;;;;26.99;21.01;101038.13;5008290;28;1244;-17
2023/02/24 05:48:07;;;;;;;;;;;;;;;26.95;21.34;101039.53;5003666;28;1204;-18
2023/02/24 05:50:33;;;;;;;;;;;;;;;27.19;21.45;101035.06;5003201;28;1898;-18
2023/02/24 05:52:58;;;;;;;;;;;;;;;27.37;21.37;101036.66;5019446;28;1033;-17
2023/02/24 05:55:23;;;;;;;;;;;;;;;28.62;20.06;101042.94;5005698;28;985;-18
2023/02/24 05:57:52;;;;;;;;;;;;;;;28.88;19.68;101039.75;5019183;28;1125;-18
2023/02/24 06:00:17;;;;;;;;;;;;;;;27.90;20.36;101044.09;5015507;28;1088;-17
2023/02/24 06:02:48;;;;;;;;;;;;;;;27.37;21.04;101040.19;5002976;28;1783;-18
2023/02/24 06:05:24;;;;;;;;;;;;;;;27.31;21.61;101048.19;4999432;28;1084;-18
2023/02/24 06:07:50;;;;;;;;;;;;;;;27.94;21.76;101045.41;5010646;28;1096;-18
2023/02/24 06:10:16;;;;;;;;;;;;;;;28.30;21.52;101043.91;5000604;28;1129;-17
2023/02/24 06:12:41;;;;;;;;;;;;;;;28.94;20.78;101052.56;5010375;28;1906;-17
2023/02/24 06:15:06;;;;;;;;;;;;;;;27.60;21.66;101052.03;5005446;28;1121;-18
2023/02/24 06:17:32;;;;;;;;;;;;;;;26.82;22.51;101058.97;5018816;28;1006;-17
2023/02/24 06:19:57;;;;;;;;;;;;;;;26.46;23.93;101054.00;5013931;28;1037;-17
2023/02/24 06:22:23;;;;;;;;;;;;;;;26.60;23.07;101042.50;5011082;28;1086;-16
2023/02/24 06:24:48;;;;;;;;;;;;;;;26.44;22.76;101039.84;5018138;28;1295;-17
2023/02/24 06:27:17;;;;;;;;;;;;;;;26.21;22.99;101046.72;5015563;28;1249;-17
2023/02/24 06:29:44;;;;;;;;;;;;;;;26.94;23.37;101040.56;4998737;28;1072;-16
2023/02/24 06:32:09;;;;;;;;;;;;;;;27.23;22.92;101040.94;5011814;28;1926;-17
2023/02/24 06:34:35;;;;;;;;;;;;;;;27.28;22.47;101035.84;4999033;28;1064;-17
2023/02/24 06:37:02;;;;;;;;;;;;;;;27.14;22.46;101038.28;5011297;28;1153;-16
2023/02/24 06:39:27;;;;;;;;;;;;;;;27.05;22.81;101033.09;4999379;28;1037;-18
2023/02/24 06:41:53;;;;;;;;;;;;;;;26.90;22.65;101042.75;4998669;28;1049;-17
2023/02/24 06:44:18;;;;;;;;;;;;;;;26.61;23.37;101040.66;5008911;28;1062;-17
2023/02/24 06:46:45;;;;;;;;;;;;;;;26.14;24.31;101041.16;5001662;28;1018;-18
2023/02/24 06:49:11;;;;;;;;;;;;;;;26.59;23.67;101032.69;4998455;28;947;-16
2023/02/24 06:51:37;;;;;;;;;;;;;;;26.77;23.41;101032.50;5002578;28;1953;-18
2023/02/24 06:54:04;;;;;;;;;;;;;;;26.24;24.04;101029.38;5018081;28;1164;-16
2023/02/24 06:56:33;;;;;;;;;;;;;;;26.67;23.19;101031.84;5017760;28;1047;-18
2023/02/24 06:58:59;;;;;;;;;;;;;;;26.94;23.02;101028.91;5006860;28;1109;-18
2023/02/24 07:01:25;;;;;;;;;;;;;;;26.89;22.82;101026.72;5000600;28;1136;-17
2023/02/24 07:06:33;;;;;;;;;;;;;;;26.38;24.12;101017.94;5013384;28;1260;-17
2023/02/24 07:08:58;;;;;;;;;;;;;;;26.98;23.15;101019.41;5009361;28;1064;-20
2023/02/24 07:13:15;;;;;;;;;;;;;;;26.47;23.49;101010.66;5080335;28;1459;-23
2023/02/24 07:15:47;;;;;;;;;;;;;;;26.56;23.56;101013.34;5082470;28;1049;-22
2023/02/24 07:18:13;;;;;;;;;;;;;;;26.43;24.43;101012.00;5077139;28;1107;-22
2023/02/24 07:20:44;;;;;;;;;;;;;;;26.13;24.35;101011.69;5083379;28;1070;-21
2023/02/24 07:23:09;;;;;;;;;;;;;;;26.21;24.12;101003.59;5052759;28;1226;-22
2023/02/24 07:25:35;;;;;;;;;;;;;;;26.04;24.49;101002.78;5062354;28;1278;-22
2023/02/24 07:28:00;;;;;;;;;;;;;;;27.00;23.09;100998.50;5084122;28;998;-22
2023/02/24 07:30:29;;;;;;;;;;;;;;;26.99;22.65;101000.34;5052731;28;1289;-21
2023/02/24 07:32:55;;;;;;;;;;;;;;;26.57;23.46;101001.53;5079708;28;1967;-21
2023/02/24 07:35:20;;;;;;;;;;;;;;;26.77;22.80;101004.66;5064053;28;1390;-22
2023/02/24 07:37:47;;;;;;;;;;;;;;;27.10;22.92;100995.59;5073103;28;910;-16
2023/02/24 07:40:16;;;;;;;;;;;;;;;26.64;23.45;100994.44;5092809;28;1053;-15
2023/02/24 07:42:41;;;;;;;;;;;;;;;26.80;23.45;100989.97;5057974;28;1181;-16
2023/02/24 07:45:07;;;;;;;;;;;;;;;27.29;22.31;100986.22;5057821;28;1320;-16
2023/02/24 07:47:32;;;;;;;;;;;;;;;27.33;22.62;100990.25;5055497;28;1379;-16
2023/02/24 07:49:59;;;;;;;;;;;;;;;27.08;22.73;100982.28;5092214;28;1029;-16
2023/02/24 07:52:24;;;;;;;;;;;;;;;27.22;22.46;100982.56;5091857;28;1894;-16
2023/02/24 07:54:49;;;;;;;;;;;;;;;26.61;23.73;100981.28;5092519;28;991;-15
2023/02/24 07:57:17;;;;;;;;;;;;;;;26.84;23.32;100977.81;5077869;28;1177;-15
2023/02/24 07:59:45;;;;;;;;;;;;;;;26.44;24.23;100972.41;5080946;28;1110;-16
2023/02/24 08:02:12;;;;;;;;;;;;;;;27.01;23.15;100965.94;5090202;28;1930;-15
2023/02/24 08:04:40;;;;;;;;;;;;;;;27.38;22.48;100965.38;5080247;28;1118;-15
2023/02/24 08:07:11;;;;;;;;;;;;;;;27.19;22.83;100967.56;5071908;28;1031;-16
2023/02/24 08:10:08;;;;;;;;;;;;;;;26.96;23.25;100968.31;5071886;28;1081;-15
2023/02/24 08:12:33;;;;;;;;;;;;;;;26.90;23.78;100964.47;5087386;28;1986;-15
2023/02/24 08:14:59;;;;;;;;;;;;;;;26.82;23.93;100963.66;5108391;28;1011;-15
2023/02/24 08:17:25;;;;;;;;;;;;;;;27.36;22.82;100951.25;5092135;28;1015;-15
2023/02/24 08:20:16;;;;;;;;;;;;;;;27.48;22.40;100949.78;5095819;28;1028;-15
2023/02/24 08:22:36;;;;;;;;;;;;;;;27.13;22.90;100952.91;5110647;28;1559;-15
2023/02/24 08:25:05;;;;;;;;;;;;;;;27.07;22.80;100945.50;5097685;28;887;-15
2023/02/24 08:27:30;;;;;;;;;;;;;;;27.24;23.27;100948.09;5092541;28;1138;-16
2023/02/24 08:30:00;;;;;;;;;;;;;;;27.16;22.66;100948.16;5085294;28;999;-15
2023/02/24 08:32:25;;;;;;;;;;;;;;;27.25;22.56;100937.13;5091177;28;1966;-16
2023/02/24 08:34:55;;;;;;;;;;;;;;;27.25;23.26;100950.63;5098626;28;1070;-15
2023/02/24 08:37:21;;;;;;;;;;;;;;;27.30;22.44;100941.97;5083097;28;1169;-15
2023/02/24 08:39:48;;;;;;;;;;;;;;;27.32;22.93;100928.28;5075283;28;1012;-15
2023/02/24 08:42:15;;;;;;;;;;;;;;;27.31;23.32;100932.84;5063088;28;1116;-15
2023/02/24 08:44:41;;;;;;;;;;;;;;;27.18;23.05;100927.19;5066934;28;1227;-14
2023/02/24 08:47:08;;;;;;;;;;;;;;;27.17;22.79;100933.63;5069026;28;1297;-15
2023/02/24 08:49:33;;;;;;;;;;;;;;;27.11;23.41;100933.31;5066666;28;1163;-15
2023/02/24 08:52:06;;;;;;;;;;;;;;;26.55;24.30;100938.81;5078738;28;1961;-16
2023/02/24 08:54:32;;;;;;;;;;;;;;;26.84;24.12;100935.47;5098174;28;1497;-15
2023/02/24 08:57:06;;;;;;;;;;;;;;;27.29;23.25;100928.66;5084673;28;1150;-15
2023/02/24 08:59:39;;;;;;;;;;;;;;;27.61;22.93;100930.25;5088401;28;1106;-15
2023/02/24 09:02:36;;;;;;;;;;;;;;;27.55;22.77;100933.69;5074805;28;1955;-16
2023/02/24 09:05:09;;;;;;;;;;;;;;;27.34;23.15;100927.06;5091946;28;1131;-16
2023/02/24 09:07:35;;;;;;;;;;;;;;;26.47;24.43;100924.34;5098119;28;986;-16
2023/02/24 09:10:01;;;;;;;;;;;;;;;27.17;23.48;100926.38;5097122;28;1086;-16
2023/02/24 09:12:27;;;;;;;;;;;;;;;27.43;22.83;100925.16;5077955;28;2006;-16
2023/02/24 09:15:06;;;;;;;;;;;;;;;27.51;22.80;100922.41;5068779;28;1173;-16
2023/02/24 09:22:59;;;;;;;;;;;;;;;27.51;23.37;100902.63;5097318;28;1154;-16
2023/02/24 09:25:39;;;;;;;;;;;;;;;27.65;22.79;100906.41;5083477;28;1158;-16
2023/02/24 09:28:08;;;;;;;;;;;;;;;27.65;22.60;100892.91;5076657;28;972;-15
2023/02/24 09:30:34;;;;;;;;;;;;;;;27.58;23.01;100900.03;5092085;28;1008;-16
2023/02/24 09:33:04;;;;;;;;;;;;;;;27.16;23.48;100894.16;5094540;28;2120;-15
2023/02/24 09:35:30;;;;;;;;;;;;;;;27.31;22.96;100894.22;5081596;28;1190;-15
2023/02/24 09:37:56;;;;;;;;;;;;;;;27.07;23.56;100890.66;5077200;28;869;-15
2023/02/24 09:40:38;;;;;;;;;;;;;;;27.05;23.37;100887.28;5078688;28;1503;-15
2023/02/24 09:43:09;;;;;;;;;;;;;;;24.78;23.67;100888.63;5086639;28;1130;-15
2023/02/24 09:45:35;;;;;;;;;;;;;;;25.84;24.00;100891.78;5076409;28;996;-15
2023/02/24 09:48:09;;;;;;;;;;;;;;;27.63;22.11;100884.13;5059143;28;1091;-15
2023/02/24 09:50:45;;;;;;;;;;;;;;;27.47;22.09;100883.28;5056485;28;1060;-15
2023/02/24 09:53:16;;;;;;;;;;;;;;;27.21;22.42;100875.56;5060676;28;1977;-15
2023/02/24 09:55:59;;;;;;;;;;;;;;;27.66;22.08;100869.44;5076739;28;1019;-15
2023/02/24 09:58:36;;;;;;;;;;;;;;;28.12;21.46;100876.56;5076749;28;1111;-15
2023/02/24 10:01:43;;;;;;;;;;;;;;;28.14;21.43;100868.28;5066554;28;1230;-15
2023/02/24 10:04:21;;;;;;;;;;;;;;;28.16;21.78;100866.22;4993067;28;2479;-15
2023/02/24 10:06:50;;;;;;;;;;;;;;;29.03;20.67;100861.03;4994650;28;1310;-15
2023/02/24 10:09:20;;;;;;;;;;;;;;;28.60;20.99;100853.66;5024433;28;1287;-15
2023/02/24 10:11:52;;;;;;;;;;;;;;;28.26;21.30;100844.28;5074356;28;1906;-16
2023/02/24 10:14:24;;;;;;;;;;;;;;;28.63;21.13;100841.66;5040361;28;1219;-14
2023/02/24 10:17:21;;;;;;;;;;;;;;;28.42;21.41;100833.28;5056055;28;1255;-14
2023/02/24 10:19:35;;;;;;;;;;;;;;;28.79;20.87;100838.69;5076052;28;1342;-15
2023/02/24 10:22:09;;;;;;;;;;;;;;;28.60;21.20;100827.47;5057404;28;1301;-15
2023/02/24 10:24:46;;;;;;;;;;;;;;;28.35;21.16;100819.69;5075704;28;1186;-15
2023/02/24 10:27:22;;;;;;;;;;;;;;;28.22;21.41;100809.50;5046086;28;1138;-15
2023/02/24 10:30:03;;;;;;;;;;;;;;;29.00;20.93;100806.41;5073248;28;1096;-15
2023/02/24 10:32:47;;;;;;;;;;;;;;;29.72;19.98;100798.22;5053562;28;2500;-15
2023/02/24 10:35:16;;;;;;;;;;;;;;;28.57;21.06;100792.66;5049281;28;1059;-14
2023/02/24 10:37:41;;;;;;;;;;;;;;;28.10;21.51;100800.19;5079611;28;1046;-15
2023/02/24 10:40:11;;;;;;;;;;;;;;;28.84;21.05;100792.09;5084697;28;1081;-15
2023/02/24 10:42:43;;;;;;;;;;;;;;;29.21;20.47;100790.13;5075656;28;1078;-14
2023/02/24 10:45:22;;;;;;;;;;;;;;;29.66;20.20;100780.03;5076276;28;1018;-14
2023/02/24 10:47:55;;;;;;;;;;;;;;;28.44;21.52;100779.84;5063213;28;973;-15
2023/02/24 10:50:22;;;;;;;;;;;;;;;28.13;21.92;100771.94;5070636;28;1477;-15
2023/02/24 10:58:36;;;;;;;;;;;;;;;28.61;21.10;100755.22;5058969;28;1131;-15
2023/02/24 11:01:19;;;;;;;;;;;;;;;28.23;21.71;100740.00;5091902;28;975;-14
2023/02/24 11:04:00;;;;;;;;;;;;;;;28.66;21.09;100735.69;5068915;28;2045;-15
2023/02/24 11:06:51;;;;;;;;;;;;;;;28.69;21.17;100729.91;5089610;28;1415;-15
2023/02/24 11:10:10;;;;;;;;;;;;;;;28.11;21.82;100716.16;5095764;28;1045;-14
2023/02/24 11:17:55;;;;;;;;;;;;;;;28.73;22.08;100715.78;5068265;28;1054;-15
2023/02/24 11:20:45;;;;;;;;;;;;;;;28.92;21.64;100716.13;5066588;28;1138;-15
2023/02/24 11:23:12;;;;;;;;;;;;;;;28.71;21.88;100712.41;5081889;28;1485;-15
2023/02/24 11:25:42;;;;;;;;;;;;;;;27.85;22.72;100709.44;5070581;28;1158;-15
2023/02/24 11:28:28;;;;;;;;;;;;;;;27.59;23.03;100707.19;5051829;28;946;-15
2023/02/24 11:30:56;;;;;;;;;;;;;;;28.87;21.28;100705.06;5086333;28;877;-15
2023/02/24 11:33:25;;;;;;;;;;;;;;;29.37;20.83;100687.06;5080272;28;1886;-15
2023/02/24 11:35:56;;;;;;;;;;;;;;;29.50;20.75;100689.84;5095670;28;1054;-15
2023/02/24 11:38:26;;;;;;;;;;;;;;;28.77;21.39;100696.44;5093979;28;1078;-14
2023/02/24 11:40:57;;;;;;;;;;;;;;;28.60;21.61;100688.59;5086049;28;1034;-14
2023/02/24 11:43:23;;;;;;;;;;;;;;;27.94;22.38;100683.13;5061978;28;1164;-15
2023/02/24 11:45:53;;;;;;;;;;;;;;;27.73;23.32;100675.78;5067549;28;1291;-14
2023/02/24 11:48:37;;;;;;;;;;;;;;;28.86;21.25;100679.03;5059665;28;1531;-15
2023/02/24 11:51:03;;;;;;;;;;;;;;;29.02;21.30;100677.06;5046042;28;1898;-15
2023/02/24 11:53:28;;;;;;;;;;;;;;;29.27;21.36;100672.03;5077457;28;1106;-14
2023/02/24 11:56:17;;;;;;;;;;;;;;;29.29;21.19;100672.66;5062140;28;1214;-21
2023/02/24 11:58:44;;;;;;;;;;;;;;;28.33;21.96;100672.94;5050998;28;1531;-22
2023/02/24 12:01:09;;;;;;;;;;;;;;;27.89;22.52;100658.53;5050509;28;1227;-21
2023/02/24 12:03:35;;;;;;;;;;;;;;;27.79;22.89;100658.00;5072760;28;1807;-23
2023/02/24 12:06:08;;;;;;;;;;;;;;;28.48;22.14;100659.34;5066948;28;1253;-22
2023/02/24 12:08:37;;;;;;;;;;;;;;;28.75;21.54;100656.03;5068318;28;1199;-23
2023/02/24 12:11:04;;;;;;;;;;;;;;;29.28;21.11;100648.47;5066735;28;1909;-22
2023/02/24 12:13:41;;;;;;;;;;;;;;;29.31;21.02;100645.38;5067947;28;1219;-21
2023/02/24 12:16:10;;;;;;;;;;;;;;;28.34;21.97;100641.31;5049357;28;1037;-21
2023/02/24 12:18:39;;;;;;;;;;;;;;;28.29;22.10;100636.47;5068106;28;1562;-23
2023/02/24 12:21:11;;;;;;;;;;;;;;;29.03;21.31;100627.31;5065743;28;1218;-15
2023/02/24 12:23:38;;;;;;;;;;;;;;;29.08;21.17;100622.94;5068070;28;1266;-15
2023/02/24 12:26:22;;;;;;;;;;;;;;;29.13;21.26;100619.63;5067723;28;1041;-15
2023/02/24 12:29:14;;;;;;;;;;;;;;;28.69;21.48;100624.34;5063629;28;1183;-16
2023/02/24 12:31:59;;;;;;;;;;;;;;;28.56;21.69;100612.34;5066801;28;1965;-15
2023/02/24 12:34:30;;;;;;;;;;;;;;;29.98;20.50;100612.25;5048195;28;1157;-15
2023/02/24 12:37:06;;;;;;;;;;;;;;;30.72;19.47;100618.75;5072253;28;956;-15
2023/02/24 12:39:37;;;;;;;;;;;;;;;29.72;20.55;100608.44;5097309;28;1096;-15
2023/02/24 12:42:12;;;;;;;;;;;;;;;28.72;21.86;100603.13;5088047;28;1130;-16
2023/02/24 12:44:40;;;;;;;;;;;;;;;29.67;21.01;100600.94;5081216;28;1078;-16
2023/02/24 12:47:09;;;;;;;;;;;;;;;31.01;19.44;100609.31;5067310;28;1012;-15
2023/02/24 12:49:39;;;;;;;;;;;;;;;30.82;19.53;100604.78;5043784;28;1231;-15
2023/02/24 12:52:11;;;;;;;;;;;;;;;30.55;19.68;100602.91;5052757;28;1898;-15
2023/02/24 12:54:42;;;;;;;;;;;;;;;29.05;21.24;100596.25;5094153;28;1127;-16
2023/02/24 12:57:10;;;;;;;;;;;;;;;28.69;21.96;100591.84;5080899;28;1070;-15
2023/02/24 12:59:39;;;;;;;;;;;;;;;30.06;20.32;100592.25;5063931;28;1199;-15
2023/02/24 13:02:06;;;;;;;;;;;;;;;30.39;19.90;100590.59;5059696;28;1817;-15
2023/02/24 13:04:35;;;;;;;;;;;;;;;29.10;21.50;100587.53;5063525;28;953;-14
2023/02/24 13:07:04;;;;;;;;;;;;;;;28.81;21.96;100586.72;5054234;28;1330;-15
2023/02/24 13:09:38;;;;;;;;;;;;;;;29.38;21.46;100578.47;5067341;28;1012;-16
2023/02/24 13:12:17;;;;;;;;;;;;;;;27.29;21.44;100582.97;5090084;28;1906;-15
2023/02/24 13:14:42;;;;;;;;;;;;;;;26.27;23.00;100576.88;5070449;28;1115;-15
2023/02/24 13:17:10;;;;;;;;;;;;;;;25.84;23.17;100581.91;5061525;28;1111;-14
2023/02/24 13:19:39;;;;;;;;;;;;;;;25.85;22.48;100578.19;5059280;28;1320;-15
2023/02/24 13:22:04;;;;;;;;;;;;;;;26.93;22.42;100566.47;5079089;28;1223;-14
2023/02/24 13:24:29;;;;;;;;;;;;;;;26.28;22.59;100575.84;5072585;28;1118;-14